Time;durP1;ratioP1;P1;durP2;ratioP2;P2;SDS_P1;SDS_P2;PMS_P1;PMS_P2;Temp;Humidity;BMP_temperature;BMP_pressure;BME280_temperature;BME280_humidity;BME280_pressure;Samples;Min_cycle;Max_cycle;Signal;HPM_P1;HPM_P2
2022/12/16 00:00:39;;;;;;;26.40;21.43;;;;;;;;;;6254761;23;20402;-77
2022/12/16 00:03:29;;;;;;;25.57;20.80;;;;;;;;;;6260765;22;20449;-77
2022/12/16 00:06:19;;;;;;;27.40;21.30;;;;;;;;;;6264566;22;20417;-78
2022/12/16 00:09:07;;;;;;;27.30;21.10;;;;;;;;;;6261336;23;20489;-78
2022/12/16 00:11:56;;;;;;;27.30;21.13;;;;;;;;;;6257901;22;20472;-77
2022/12/16 00:14:56;;;;;;;26.80;21.17;;;;;;;;;;6264289;23;20414;-77
2022/12/16 00:17:50;;;;;;;27.70;21.40;;;;;;;;;;6253904;23;20425;-77
2022/12/16 00:20:43;;;;;;;26.77;21.97;;;;;;;;;;6255061;23;20413;-77
2022/12/16 00:23:32;;;;;;;27.37;22.60;;;;;;;;;;6257014;22;20782;-77
2022/12/16 00:26:24;;;;;;;27.63;21.57;;;;;;;;;;6258444;23;20443;-76
2022/12/16 00:29:16;;;;;;;24.47;21.37;;;;;;;;;;6261894;23;20409;-77
2022/12/16 00:32:06;;;;;;;26.80;21.70;;;;;;;;;;6254917;22;20446;-77
2022/12/16 00:34:58;;;;;;;25.70;21.30;;;;;;;;;;6256195;23;20460;-77
2022/12/16 00:37:51;;;;;;;25.27;21.73;;;;;;;;;;6260063;23;20934;-77
2022/12/16 00:40:44;;;;;;;25.93;22.07;;;;;;;;;;6261849;23;20408;-77
2022/12/16 00:43:34;;;;;;;27.00;21.23;;;;;;;;;;6254844;23;20445;-76
2022/12/16 00:46:26;;;;;;;26.63;21.87;;;;;;;;;;6257493;23;20413;-77
2022/12/16 00:49:16;;;;;;;31.73;21.57;;;;;;;;;;6259132;23;20805;-77
2022/12/16 00:52:08;;;;;;;25.90;20.77;;;;;;;;;;6259825;22;20505;-77
2022/12/16 00:54:56;;;;;;;31.57;21.70;;;;;;;;;;6253769;23;20421;-77
2022/12/16 00:57:47;;;;;;;26.53;21.43;;;;;;;;;;6255679;23;20410;-77
2022/12/16 01:00:39;;;;;;;29.70;21.00;;;;;;;;;;6248970;23;20413;-76
2022/12/16 01:03:28;;;;;;;29.83;21.77;;;;;;;;;;6258856;22;20523;-76
2022/12/16 01:06:18;;;;;;;27.00;21.40;;;;;;;;;;6254720;23;20424;-77
2022/12/16 01:09:19;;;;;;;27.20;22.30;;;;;;;;;;6256337;23;20408;-77
2022/12/16 01:12:13;;;;;;;28.10;22.13;;;;;;;;;;6253299;22;20452;-76
2022/12/16 01:15:03;;;;;;;27.00;22.03;;;;;;;;;;6257138;23;20406;-77
2022/12/16 01:17:54;;;;;;;27.20;22.60;;;;;;;;;;6252027;23;20426;-79
2022/12/16 01:20:42;;;;;;;25.97;22.30;;;;;;;;;;6263934;23;20414;-78
2022/12/16 01:23:36;;;;;;;28.30;21.23;;;;;;;;;;6251614;23;20456;-77
2022/12/16 01:26:26;;;;;;;26.47;21.77;;;;;;;;;;6256271;23;20418;-78
2022/12/16 01:29:18;;;;;;;26.00;21.00;;;;;;;;;;6257703;23;21373;-81
2022/12/16 01:32:13;;;;;;;24.83;21.10;;;;;;;;;;6253997;22;20448;-77
2022/12/16 01:35:02;;;;;;;28.50;22.87;;;;;;;;;;6252468;23;20827;-77
2022/12/16 01:37:53;;;;;;;30.43;22.33;;;;;;;;;;6253415;23;20417;-77
2022/12/16 01:40:43;;;;;;;28.03;22.50;;;;;;;;;;6255090;23;20409;-77
2022/12/16 01:43:39;;;;;;;25.20;21.10;;;;;;;;;;6260500;22;21016;-77
2022/12/16 01:46:30;;;;;;;29.53;20.80;;;;;;;;;;6257911;23;20796;-77
2022/12/16 01:49:22;;;;;;;27.90;21.17;;;;;;;;;;6259306;23;20748;-77
2022/12/16 01:52:12;;;;;;;29.87;22.67;;;;;;;;;;6254932;22;20442;-78
2022/12/16 01:55:18;;;;;;;30.17;23.13;;;;;;;;;;6255621;23;20432;-78
2022/12/16 01:58:10;;;;;;;28.53;22.17;;;;;;;;;;6252501;23;20418;-77
2022/12/16 02:00:59;;;;;;;28.30;23.00;;;;;;;;;;6269542;23;20825;-77
2022/12/16 02:03:48;;;;;;;26.50;21.93;;;;;;;;;;6256577;23;20478;-77
2022/12/16 02:06:40;;;;;;;23.63;20.30;;;;;;;;;;6255220;23;20412;-77
2022/12/16 02:09:34;;;;;;;32.33;22.60;;;;;;;;;;6253923;23;20742;-76
2022/12/16 02:12:29;;;;;;;28.17;22.03;;;;;;;;;;6252205;22;20500;-77
2022/12/16 02:15:36;;;;;;;24.60;20.23;;;;;;;;;;6258367;23;20785;-77
2022/12/16 02:18:30;;;;;;;29.17;21.60;;;;;;;;;;6255424;23;20411;-77
2022/12/16 02:21:24;;;;;;;27.07;21.90;;;;;;;;;;6254050;23;20434;-80
2022/12/16 02:24:28;;;;;;;26.13;21.27;;;;;;;;;;6251639;23;20420;-78
2022/12/16 02:27:31;;;;;;;26.80;21.70;;;;;;;;;;6245987;23;20420;-77
2022/12/16 02:30:42;;;;;;;26.93;21.10;;;;;;;;;;6247235;23;20467;-78
2022/12/16 02:33:42;;;;;;;29.23;21.07;;;;;;;;;;6250767;22;20441;-75
2022/12/16 02:36:42;;;;;;;27.67;21.80;;;;;;;;;;6250049;22;20416;-75
2022/12/16 02:39:34;;;;;;;27.10;21.73;;;;;;;;;;6248066;22;20750;-76
2022/12/16 02:42:30;;;;;;;27.20;21.20;;;;;;;;;;6253754;22;20530;-76
2022/12/16 02:45:23;;;;;;;26.33;21.17;;;;;;;;;;6246593;23;20422;-76
2022/12/16 02:59:22;;;;;;;30.33;22.10;;;;;;;;;;6272457;22;20825;-79
2022/12/16 03:02:17;;;;;;;32.40;23.00;;;;;;;;;;6272438;22;20449;-79
2022/12/16 03:05:13;;;;;;;27.53;21.80;;;;;;;;;;6285315;22;20412;-79
2022/12/16 03:08:06;;;;;;;27.80;21.27;;;;;;;;;;6285490;22;20440;-78
2022/12/16 03:10:59;;;;;;;29.80;22.50;;;;;;;;;;6285129;22;20409;-78
2022/12/16 03:13:51;;;;;;;28.53;22.47;;;;;;;;;;6274704;22;20443;-79
2022/12/16 03:16:44;;;;;;;30.50;21.30;;;;;;;;;;6284822;22;20435;-78
2022/12/16 03:19:39;;;;;;;28.00;21.57;;;;;;;;;;6285047;22;20506;-79
2022/12/16 03:22:33;;;;;;;32.80;22.73;;;;;;;;;;6275170;22;20447;-79
2022/12/16 03:25:25;;;;;;;27.00;20.80;;;;;;;;;;6274318;22;20496;-79
2022/12/16 03:28:19;;;;;;;29.57;21.60;;;;;;;;;;6285749;22;20421;-79
2022/12/16 03:31:19;;;;;;;26.00;21.23;;;;;;;;;;6268375;22;20849;-79
